sensor_id;sensor_type;location;lat;lon;timestamp;P1;durP1;ratioP1;P2;durP2;ratioP2
9140;SDS011;46330;50.822;7.126;2023-06-10T00:01:10;12.82;;;8.18;;
9140;SDS011;46330;50.822;7.126;2023-06-10T00:03:38;9.70;;;7.70;;
9140;SDS011;46330;50.822;7.126;2023-06-10T00:06:07;11.27;;;7.40;;
9140;SDS011;46330;50.822;7.126;2023-06-10T00:08:35;9.95;;;7.40;;
9140;SDS011;46330;50.822;7.126;2023-06-10T00:11:05;10.43;;;7.13;;
9140;SDS011;46330;50.822;7.126;2023-06-10T00:13:33;9.40;;;7.22;;
9140;SDS011;46330;50.822;7.126;2023-06-10T00:16:02;9.93;;;6.78;;
9140;SDS011;46330;50.822;7.126;2023-06-10T00:18:30;9.73;;;6.53;;
9140;SDS011;46330;50.822;7.126;2023-06-10T00:20:58;8.05;;;6.78;;
9140;SDS011;46330;50.822;7.126;2023-06-10T00:23:30;9.25;;;6.68;;
9140;SDS011;46330;50.822;7.126;2023-06-10T00:26:06;10.43;;;6.55;;
9140;SDS011;46330;50.822;7.126;2023-06-10T00:28:34;9.80;;;7.25;;
9140;SDS011;46330;50.822;7.126;2023-06-10T00:31:03;11.55;;;7.20;;
9140;SDS011;46330;50.822;7.126;2023-06-10T00:33:31;9.50;;;6.43;;
9140;SDS011;46330;50.822;7.126;2023-06-10T00:35:59;9.13;;;6.72;;
9140;SDS011;46330;50.822;7.126;2023-06-10T00:38:27;11.27;;;6.90;;
9140;SDS011;46330;50.822;7.126;2023-06-10T00:40:55;8.35;;;6.72;;
9140;SDS011;46330;50.822;7.126;2023-06-10T00:43:25;9.80;;;7.15;;
9140;SDS011;46330;50.822;7.126;2023-06-10T00:45:53;9.60;;;7.20;;
9140;SDS011;46330;50.822;7.126;2023-06-10T00:48:22;10.55;;;7.20;;
9140;SDS011;46330;50.822;7.126;2023-06-10T00:50:50;10.38;;;7.47;;
9140;SDS011;46330;50.822;7.126;2023-06-10T00:53:21;9.68;;;6.90;;
9140;SDS011;46330;50.822;7.126;2023-06-10T00:55:49;10.68;;;6.95;;
9140;SDS011;46330;50.822;7.126;2023-06-10T00:58:19;9.98;;;7.28;;
9140;SDS011;46330;50.822;7.126;2023-06-10T01:00:49;10.07;;;7.10;;
9140;SDS011;46330;50.822;7.126;2023-06-10T01:03:18;9.10;;;7.57;;
9140;SDS011;46330;50.822;7.126;2023-06-10T01:05:46;8.73;;;7.25;;
9140;SDS011;46330;50.822;7.126;2023-06-10T01:08:28;10.40;;;7.70;;
9140;SDS011;46330;50.822;7.126;2023-06-10T01:11:03;10.73;;;7.85;;
9140;SDS011;46330;50.822;7.126;2023-06-10T01:13:35;11.82;;;8.20;;
9140;SDS011;46330;50.822;7.126;2023-06-10T01:16:07;10.82;;;7.97;;
9140;SDS011;46330;50.822;7.126;2023-06-10T01:18:37;10.48;;;8.18;;
9140;SDS011;46330;50.822;7.126;2023-06-10T01:21:08;12.65;;;8.32;;
9140;SDS011;46330;50.822;7.126;2023-06-10T01:23:40;11.90;;;8.48;;
9140;SDS011;46330;50.822;7.126;2023-06-10T01:26:09;14.55;;;9.13;;
9140;SDS011;46330;50.822;7.126;2023-06-10T01:28:40;14.45;;;8.73;;
9140;SDS011;46330;50.822;7.126;2023-06-10T01:31:17;10.98;;;8.52;;
9140;SDS011;46330;50.822;7.126;2023-06-10T01:33:52;11.57;;;8.38;;
9140;SDS011;46330;50.822;7.126;2023-06-10T01:36:24;9.88;;;8.30;;
9140;SDS011;46330;50.822;7.126;2023-06-10T01:38:52;10.93;;;8.40;;
9140;SDS011;46330;50.822;7.126;2023-06-10T01:41:21;10.70;;;8.20;;
9140;SDS011;46330;50.822;7.126;2023-06-10T01:43:50;12.98;;;8.23;;
9140;SDS011;46330;50.822;7.126;2023-06-10T01:46:18;11.18;;;8.52;;
9140;SDS011;46330;50.822;7.126;2023-06-10T01:48:47;10.68;;;8.48;;
9140;SDS011;46330;50.822;7.126;2023-06-10T01:51:15;10.85;;;8.57;;
9140;SDS011;46330;50.822;7.126;2023-06-10T01:53:45;11.23;;;8.55;;
9140;SDS011;46330;50.822;7.126;2023-06-10T01:56:13;15.05;;;8.63;;
9140;SDS011;46330;50.822;7.126;2023-06-10T01:58:45;10.50;;;8.98;;
9140;SDS011;46330;50.822;7.126;2023-06-10T02:01:13;11.30;;;9.00;;
9140;SDS011;46330;50.822;7.126;2023-06-10T02:03:41;11.43;;;9.30;;
9140;SDS011;46330;50.822;7.126;2023-06-10T02:06:09;12.45;;;8.65;;
9140;SDS011;46330;50.822;7.126;2023-06-10T02:08:37;11.50;;;8.90;;
9140;SDS011;46330;50.822;7.126;2023-06-10T02:11:07;11.45;;;8.18;;
9140;SDS011;46330;50.822;7.126;2023-06-10T02:13:35;11.10;;;8.82;;
9140;SDS011;46330;50.822;7.126;2023-06-10T02:16:03;11.90;;;9.43;;
9140;SDS011;46330;50.822;7.126;2023-06-10T02:18:32;9.63;;;8.63;;
9140;SDS011;46330;50.822;7.126;2023-06-10T02:21:00;9.90;;;8.43;;
9140;SDS011;46330;50.822;7.126;2023-06-10T02:23:28;11.20;;;8.68;;
9140;SDS011;46330;50.822;7.126;2023-06-10T02:25:56;10.23;;;8.55;;
9140;SDS011;46330;50.822;7.126;2023-06-10T02:28:25;13.65;;;9.13;;
9140;SDS011;46330;50.822;7.126;2023-06-10T02:30:54;12.43;;;8.75;;
9140;SDS011;46330;50.822;7.126;2023-06-10T02:33:24;11.45;;;9.38;;
9140;SDS011;46330;50.822;7.126;2023-06-10T02:35:53;11.27;;;9.40;;
9140;SDS011;46330;50.822;7.126;2023-06-10T02:38:23;10.68;;;9.15;;
9140;SDS011;46330;50.822;7.126;2023-06-10T02:40:52;16.77;;;10.15;;
9140;SDS011;46330;50.822;7.126;2023-06-10T02:43:21;13.50;;;9.32;;
9140;SDS011;46330;50.822;7.126;2023-06-10T02:45:51;15.48;;;10.55;;
9140;SDS011;46330;50.822;7.126;2023-06-10T02:48:20;12.13;;;9.80;;
9140;SDS011;46330;50.822;7.126;2023-06-10T02:50:48;11.15;;;9.75;;
9140;SDS011;46330;50.822;7.126;2023-06-10T02:53:25;13.38;;;10.43;;
9140;SDS011;46330;50.822;7.126;2023-06-10T02:56:00;14.88;;;10.73;;
9140;SDS011;46330;50.822;7.126;2023-06-10T02:58:29;12.73;;;10.05;;
9140;SDS011;46330;50.822;7.126;2023-06-10T03:00:58;12.60;;;9.85;;
9140;SDS011;46330;50.822;7.126;2023-06-10T03:03:33;12.90;;;9.65;;
9140;SDS011;46330;50.822;7.126;2023-06-10T03:06:07;13.07;;;9.65;;
9140;SDS011;46330;50.822;7.126;2023-06-10T03:08:36;13.05;;;9.65;;
9140;SDS011;46330;50.822;7.126;2023-06-10T03:11:09;12.98;;;10.48;;
9140;SDS011;46330;50.822;7.126;2023-06-10T03:13:38;11.63;;;9.65;;
9140;SDS011;46330;50.822;7.126;2023-06-10T03:16:10;11.35;;;9.77;;
9140;SDS011;46330;50.822;7.126;2023-06-10T03:18:39;13.93;;;10.07;;
9140;SDS011;46330;50.822;7.126;2023-06-10T03:21:07;14.65;;;10.27;;
9140;SDS011;46330;50.822;7.126;2023-06-10T03:23:36;11.77;;;10.02;;
9140;SDS011;46330;50.822;7.126;2023-06-10T03:26:05;11.60;;;10.10;;
9140;SDS011;46330;50.822;7.126;2023-06-10T03:28:36;13.10;;;10.05;;
9140;SDS011;46330;50.822;7.126;2023-06-10T03:31:04;11.93;;;9.75;;
9140;SDS011;46330;50.822;7.126;2023-06-10T03:33:34;14.07;;;10.70;;
9140;SDS011;46330;50.822;7.126;2023-06-10T03:36:02;16.58;;;13.00;;
9140;SDS011;46330;50.822;7.126;2023-06-10T03:38:31;12.88;;;11.00;;
9140;SDS011;46330;50.822;7.126;2023-06-10T03:40:59;12.93;;;10.27;;
9140;SDS011;46330;50.822;7.126;2023-06-10T03:43:27;15.65;;;11.88;;
9140;SDS011;46330;50.822;7.126;2023-06-10T03:45:55;13.70;;;11.95;;
9140;SDS011;46330;50.822;7.126;2023-06-10T03:48:23;18.25;;;12.75;;
9140;SDS011;46330;50.822;7.126;2023-06-10T03:50:54;19.83;;;15.38;;
9140;SDS011;46330;50.822;7.126;2023-06-10T03:53:21;16.05;;;11.18;;
9140;SDS011;46330;50.822;7.126;2023-06-10T03:55:50;16.70;;;11.65;;
9140;SDS011;46330;50.822;7.126;2023-06-10T03:58:22;13.70;;;10.93;;
9140;SDS011;46330;50.822;7.126;2023-06-10T04:00:50;12.02;;;10.05;;
9140;SDS011;46330;50.822;7.126;2023-06-10T04:03:25;11.80;;;10.60;;
9140;SDS011;46330;50.822;7.126;2023-06-10T04:05:55;12.65;;;10.25;;
9140;SDS011;46330;50.822;7.126;2023-06-10T04:08:25;10.93;;;9.65;;
9140;SDS011;46330;50.822;7.126;2023-06-10T04:10:53;12.10;;;10.10;;
9140;SDS011;46330;50.822;7.126;2023-06-10T04:13:23;11.15;;;9.65;;
9140;SDS011;46330;50.822;7.126;2023-06-10T04:15:55;11.25;;;9.63;;
9140;SDS011;46330;50.822;7.126;2023-06-10T04:18:24;17.52;;;9.77;;
9140;SDS011;46330;50.822;7.126;2023-06-10T04:20:57;11.88;;;9.75;;
9140;SDS011;46330;50.822;7.126;2023-06-10T04:23:25;15.80;;;10.00;;
9140;SDS011;46330;50.822;7.126;2023-06-10T04:25:53;11.23;;;9.70;;
9140;SDS011;46330;50.822;7.126;2023-06-10T04:28:22;12.38;;;8.85;;
9140;SDS011;46330;50.822;7.126;2023-06-10T04:30:50;11.95;;;9.45;;
9140;SDS011;46330;50.822;7.126;2023-06-10T04:33:18;12.43;;;8.77;;
9140;SDS011;46330;50.822;7.126;2023-06-10T04:35:47;10.75;;;8.90;;
9140;SDS011;46330;50.822;7.126;2023-06-10T04:38:17;16.30;;;11.07;;
9140;SDS011;46330;50.822;7.126;2023-06-10T04:40:45;13.90;;;10.55;;
9140;SDS011;46330;50.822;7.126;2023-06-10T04:43:15;13.07;;;9.30;;
9140;SDS011;46330;50.822;7.126;2023-06-10T04:45:45;12.82;;;8.93;;
9140;SDS011;46330;50.822;7.126;2023-06-10T04:48:13;12.25;;;8.90;;
9140;SDS011;46330;50.822;7.126;2023-06-10T04:50:41;10.98;;;8.20;;
9140;SDS011;46330;50.822;7.126;2023-06-10T04:53:10;10.23;;;8.48;;
9140;SDS011;46330;50.822;7.126;2023-06-10T04:55:42;10.27;;;7.93;;
9140;SDS011;46330;50.822;7.126;2023-06-10T04:58:11;9.52;;;7.80;;
9140;SDS011;46330;50.822;7.126;2023-06-10T05:00:39;10.35;;;7.72;;
9140;SDS011;46330;50.822;7.126;2023-06-10T05:03:07;10.77;;;8.13;;
9140;SDS011;46330;50.822;7.126;2023-06-10T05:05:34;10.95;;;8.02;;
9140;SDS011;46330;50.822;7.126;2023-06-10T05:08:03;9.52;;;7.95;;
9140;SDS011;46330;50.822;7.126;2023-06-10T05:10:34;11.38;;;7.80;;
9140;SDS011;46330;50.822;7.126;2023-06-10T05:13:03;8.18;;;6.90;;
9140;SDS011;46330;50.822;7.126;2023-06-10T05:15:31;10.13;;;6.88;;
9140;SDS011;46330;50.822;7.126;2023-06-10T05:17:59;11.65;;;6.65;;
9140;SDS011;46330;50.822;7.126;2023-06-10T05:20:29;12.80;;;7.15;;
9140;SDS011;46330;50.822;7.126;2023-06-10T05:22:57;9.70;;;7.28;;
9140;SDS011;46330;50.822;7.126;2023-06-10T05:25:25;10.63;;;7.72;;
9140;SDS011;46330;50.822;7.126;2023-06-10T05:27:54;8.90;;;6.95;;
9140;SDS011;46330;50.822;7.126;2023-06-10T05:30:24;8.65;;;6.78;;
9140;SDS011;46330;50.822;7.126;2023-06-10T05:32:53;8.13;;;6.47;;
9140;SDS011;46330;50.822;7.126;2023-06-10T05:35:22;10.63;;;6.53;;
9140;SDS011;46330;50.822;7.126;2023-06-10T05:37:50;8.88;;;6.35;;
9140;SDS011;46330;50.822;7.126;2023-06-10T05:40:18;9.20;;;6.30;;
9140;SDS011;46330;50.822;7.126;2023-06-10T05:42:46;9.18;;;6.00;;
9140;SDS011;46330;50.822;7.126;2023-06-10T05:45:14;10.20;;;6.80;;
9140;SDS011;46330;50.822;7.126;2023-06-10T05:47:43;10.05;;;6.40;;
9140;SDS011;46330;50.822;7.126;2023-06-10T05:50:11;9.05;;;6.50;;
9140;SDS011;46330;50.822;7.126;2023-06-10T05:52:39;11.35;;;6.13;;
9140;SDS011;46330;50.822;7.126;2023-06-10T05:55:08;8.63;;;6.03;;
9140;SDS011;46330;50.822;7.126;2023-06-10T05:57:37;7.05;;;5.60;;
9140;SDS011;46330;50.822;7.126;2023-06-10T06:00:05;8.38;;;5.55;;
9140;SDS011;46330;50.822;7.126;2023-06-10T06:02:40;8.90;;;5.50;;
9140;SDS011;46330;50.822;7.126;2023-06-10T06:05:10;8.00;;;5.53;;
9140;SDS011;46330;50.822;7.126;2023-06-10T06:07:39;7.65;;;5.38;;
9140;SDS011;46330;50.822;7.126;2023-06-10T06:10:07;9.82;;;5.40;;
9140;SDS011;46330;50.822;7.126;2023-06-10T06:12:35;8.23;;;4.88;;
9140;SDS011;46330;50.822;7.126;2023-06-10T06:15:03;12.88;;;5.18;;
9140;SDS011;46330;50.822;7.126;2023-06-10T06:17:32;9.15;;;5.40;;
9140;SDS011;46330;50.822;7.126;2023-06-10T06:20:00;7.80;;;5.15;;
9140;SDS011;46330;50.822;7.126;2023-06-10T06:22:29;8.23;;;5.05;;
9140;SDS011;46330;50.822;7.126;2023-06-10T06:24:57;7.72;;;4.80;;
9140;SDS011;46330;50.822;7.126;2023-06-10T06:27:25;7.97;;;5.13;;
9140;SDS011;46330;50.822;7.126;2023-06-10T06:29:53;7.63;;;5.00;;
9140;SDS011;46330;50.822;7.126;2023-06-10T06:32:21;7.85;;;4.95;;
9140;SDS011;46330;50.822;7.126;2023-06-10T06:34:51;11.68;;;4.78;;
9140;SDS011;46330;50.822;7.126;2023-06-10T06:37:21;9.68;;;5.38;;
9140;SDS011;46330;50.822;7.126;2023-06-10T06:39:57;6.95;;;4.85;;
9140;SDS011;46330;50.822;7.126;2023-06-10T06:42:29;6.72;;;4.65;;
9140;SDS011;46330;50.822;7.126;2023-06-10T06:45:09;9.02;;;4.95;;
9140;SDS011;46330;50.822;7.126;2023-06-10T06:47:38;8.65;;;5.35;;
9140;SDS011;46330;50.822;7.126;2023-06-10T06:50:06;7.20;;;4.78;;
9140;SDS011;46330;50.822;7.126;2023-06-10T06:52:34;9.48;;;4.60;;
9140;SDS011;46330;50.822;7.126;2023-06-10T06:55:04;8.00;;;4.18;;
9140;SDS011;46330;50.822;7.126;2023-06-10T06:57:33;8.80;;;4.85;;
9140;SDS011;46330;50.822;7.126;2023-06-10T07:00:01;10.85;;;5.40;;
9140;SDS011;46330;50.822;7.126;2023-06-10T07:02:31;7.72;;;4.65;;
9140;SDS011;46330;50.822;7.126;2023-06-10T07:04:59;5.90;;;3.78;;
9140;SDS011;46330;50.822;7.126;2023-06-10T07:07:27;6.78;;;4.60;;
9140;SDS011;46330;50.822;7.126;2023-06-10T07:09:55;6.60;;;4.05;;
9140;SDS011;46330;50.822;7.126;2023-06-10T07:12:24;7.57;;;4.20;;
9140;SDS011;46330;50.822;7.126;2023-06-10T07:14:52;9.95;;;4.18;;
9140;SDS011;46330;50.822;7.126;2023-06-10T07:17:20;6.40;;;3.90;;
9140;SDS011;46330;50.822;7.126;2023-06-10T07:19:48;5.47;;;3.67;;
9140;SDS011;46330;50.822;7.126;2023-06-10T07:22:17;5.57;;;3.63;;
9140;SDS011;46330;50.822;7.126;2023-06-10T07:24:46;5.60;;;3.95;;
9140;SDS011;46330;50.822;7.126;2023-06-10T07:27:13;6.18;;;4.03;;
9140;SDS011;46330;50.822;7.126;2023-06-10T07:29:43;6.07;;;4.10;;
9140;SDS011;46330;50.822;7.126;2023-06-10T07:32:11;8.57;;;4.10;;
9140;SDS011;46330;50.822;7.126;2023-06-10T07:34:39;5.03;;;3.85;;
9140;SDS011;46330;50.822;7.126;2023-06-10T07:37:07;6.05;;;3.88;;
9140;SDS011;46330;50.822;7.126;2023-06-10T07:39:35;5.43;;;3.90;;
9140;SDS011;46330;50.822;7.126;2023-06-10T07:42:03;4.63;;;3.65;;
9140;SDS011;46330;50.822;7.126;2023-06-10T07:44:31;6.38;;;3.78;;
9140;SDS011;46330;50.822;7.126;2023-06-10T07:47:01;5.85;;;3.75;;
9140;SDS011;46330;50.822;7.126;2023-06-10T07:49:29;6.55;;;3.63;;
9140;SDS011;46330;50.822;7.126;2023-06-10T07:51:57;5.43;;;3.47;;
9140;SDS011;46330;50.822;7.126;2023-06-10T07:54:25;6.03;;;3.30;;
9140;SDS011;46330;50.822;7.126;2023-06-10T07:56:55;6.82;;;3.65;;
9140;SDS011;46330;50.822;7.126;2023-06-10T07:59:23;5.78;;;3.60;;
9140;SDS011;46330;50.822;7.126;2023-06-10T08:01:52;5.82;;;4.00;;
9140;SDS011;46330;50.822;7.126;2023-06-10T08:04:22;5.97;;;3.80;;
9140;SDS011;46330;50.822;7.126;2023-06-10T08:06:50;5.40;;;3.90;;
9140;SDS011;46330;50.822;7.126;2023-06-10T08:09:18;5.82;;;3.80;;
9140;SDS011;46330;50.822;7.126;2023-06-10T08:11:47;4.53;;;3.80;;
9140;SDS011;46330;50.822;7.126;2023-06-10T08:14:16;5.25;;;3.45;;
9140;SDS011;46330;50.822;7.126;2023-06-10T08:16:43;9.43;;;3.63;;
9140;SDS011;46330;50.822;7.126;2023-06-10T08:19:12;7.95;;;3.60;;
9140;SDS011;46330;50.822;7.126;2023-06-10T08:21:41;7.35;;;3.70;;
9140;SDS011;46330;50.822;7.126;2023-06-10T08:24:09;4.65;;;3.40;;
9140;SDS011;46330;50.822;7.126;2023-06-10T08:26:37;6.85;;;3.58;;
9140;SDS011;46330;50.822;7.126;2023-06-10T08:29:06;9.18;;;3.92;;
9140;SDS011;46330;50.822;7.126;2023-06-10T08:31:34;4.90;;;3.58;;
9140;SDS011;46330;50.822;7.126;2023-06-10T08:34:02;6.15;;;3.63;;
9140;SDS011;46330;50.822;7.126;2023-06-10T08:36:30;7.55;;;3.50;;
9140;SDS011;46330;50.822;7.126;2023-06-10T08:38:59;8.35;;;3.50;;
9140;SDS011;46330;50.822;7.126;2023-06-10T08:41:28;6.72;;;3.65;;
9140;SDS011;46330;50.822;7.126;2023-06-10T08:43:59;3.72;;;3.33;;
9140;SDS011;46330;50.822;7.126;2023-06-10T08:46:31;6.05;;;3.60;;
9140;SDS011;46330;50.822;7.126;2023-06-10T08:49:00;7.53;;;3.95;;
9140;SDS011;46330;50.822;7.126;2023-06-10T08:51:33;5.45;;;3.53;;
9140;SDS011;46330;50.822;7.126;2023-06-10T08:54:07;6.50;;;3.47;;
9140;SDS011;46330;50.822;7.126;2023-06-10T08:56:41;5.03;;;3.50;;
9140;SDS011;46330;50.822;7.126;2023-06-10T08:59:10;5.93;;;3.25;;
9140;SDS011;46330;50.822;7.126;2023-06-10T09:01:39;6.32;;;3.40;;
9140;SDS011;46330;50.822;7.126;2023-06-10T09:04:07;5.32;;;3.20;;
9140;SDS011;46330;50.822;7.126;2023-06-10T09:06:35;5.47;;;3.15;;
9140;SDS011;46330;50.822;7.126;2023-06-10T09:09:06;6.53;;;3.58;;
9140;SDS011;46330;50.822;7.126;2023-06-10T09:11:35;6.75;;;3.60;;
9140;SDS011;46330;50.822;7.126;2023-06-10T09:14:04;7.50;;;3.60;;
9140;SDS011;46330;50.822;7.126;2023-06-10T09:16:32;7.85;;;3.60;;
9140;SDS011;46330;50.822;7.126;2023-06-10T09:19:00;6.85;;;3.83;;
9140;SDS011;46330;50.822;7.126;2023-06-10T09:21:34;5.57;;;3.38;;
9140;SDS011;46330;50.822;7.126;2023-06-10T09:24:03;4.72;;;3.22;;
9140;SDS011;46330;50.822;7.126;2023-06-10T09:26:34;7.60;;;3.33;;
9140;SDS011;46330;50.822;7.126;2023-06-10T09:29:04;5.53;;;3.10;;
9140;SDS011;46330;50.822;7.126;2023-06-10T09:31:35;6.35;;;2.90;;
9140;SDS011;46330;50.822;7.126;2023-06-10T09:34:07;7.18;;;3.30;;
9140;SDS011;46330;50.822;7.126;2023-06-10T09:36:37;3.97;;;3.00;;
9140;SDS011;46330;50.822;7.126;2023-06-10T09:39:13;6.43;;;3.25;;
9140;SDS011;46330;50.822;7.126;2023-06-10T09:41:44;5.68;;;3.30;;
9140;SDS011;46330;50.822;7.126;2023-06-10T09:44:13;5.90;;;3.70;;
9140;SDS011;46330;50.822;7.126;2023-06-10T09:46:41;5.50;;;3.33;;
9140;SDS011;46330;50.822;7.126;2023-06-10T09:49:12;7.38;;;3.10;;
9140;SDS011;46330;50.822;7.126;2023-06-10T09:51:48;7.00;;;3.30;;
9140;SDS011;46330;50.822;7.126;2023-06-10T09:54:17;6.05;;;3.05;;
9140;SDS011;46330;50.822;7.126;2023-06-10T09:56:48;5.57;;;3.00;;
9140;SDS011;46330;50.822;7.126;2023-06-10T09:59:16;5.03;;;3.47;;
9140;SDS011;46330;50.822;7.126;2023-06-10T10:01:55;3.50;;;3.00;;
9140;SDS011;46330;50.822;7.126;2023-06-10T10:04:24;5.40;;;3.00;;
9140;SDS011;46330;50.822;7.126;2023-06-10T10:06:52;5.90;;;3.20;;
9140;SDS011;46330;50.822;7.126;2023-06-10T10:09:20;6.10;;;3.25;;
9140;SDS011;46330;50.822;7.126;2023-06-10T10:11:49;5.65;;;3.17;;
9140;SDS011;46330;50.822;7.126;2023-06-10T10:14:19;4.85;;;2.95;;
9140;SDS011;46330;50.822;7.126;2023-06-10T10:16:48;6.28;;;3.03;;
9140;SDS011;46330;50.822;7.126;2023-06-10T10:19:19;6.07;;;3.10;;
9140;SDS011;46330;50.822;7.126;2023-06-10T10:21:50;5.32;;;3.20;;
9140;SDS011;46330;50.822;7.126;2023-06-10T10:24:21;4.93;;;3.13;;
9140;SDS011;46330;50.822;7.126;2023-06-10T10:26:52;7.97;;;3.17;;
9140;SDS011;46330;50.822;7.126;2023-06-10T10:29:24;5.88;;;3.03;;
9140;SDS011;46330;50.822;7.126;2023-06-10T10:31:56;9.73;;;3.10;;
9140;SDS011;46330;50.822;7.126;2023-06-10T10:34:30;4.45;;;2.92;;
9140;SDS011;46330;50.822;7.126;2023-06-10T10:37:03;6.40;;;3.00;;
9140;SDS011;46330;50.822;7.126;2023-06-10T10:39:34;7.70;;;3.25;;
9140;SDS011;46330;50.822;7.126;2023-06-10T10:42:05;6.25;;;2.80;;
9140;SDS011;46330;50.822;7.126;2023-06-10T10:44:36;6.05;;;2.83;;
9140;SDS011;46330;50.822;7.126;2023-06-10T10:47:07;5.97;;;3.15;;
9140;SDS011;46330;50.822;7.126;2023-06-10T10:49:37;6.38;;;3.00;;
9140;SDS011;46330;50.822;7.126;2023-06-10T10:52:08;5.05;;;2.92;;
9140;SDS011;46330;50.822;7.126;2023-06-10T10:54:43;6.97;;;3.40;;
9140;SDS011;46330;50.822;7.126;2023-06-10T10:59:43;6.15;;;3.13;;
9140;SDS011;46330;50.822;7.126;2023-06-10T11:02:15;6.47;;;3.10;;
9140;SDS011;46330;50.822;7.126;2023-06-10T11:04:45;5.73;;;2.83;;
9140;SDS011;46330;50.822;7.126;2023-06-10T11:07:19;4.55;;;3.10;;
9140;SDS011;46330;50.822;7.126;2023-06-10T11:09:58;6.95;;;3.47;;
9140;SDS011;46330;50.822;7.126;2023-06-10T11:12:40;6.65;;;3.30;;
9140;SDS011;46330;50.822;7.126;2023-06-10T11:15:08;6.90;;;3.08;;
9140;SDS011;46330;50.822;7.126;2023-06-10T11:17:37;4.68;;;3.00;;
9140;SDS011;46330;50.822;7.126;2023-06-10T11:20:05;7.32;;;3.30;;
9140;SDS011;46330;50.822;7.126;2023-06-10T11:22:42;5.53;;;3.13;;
9140;SDS011;46330;50.822;7.126;2023-06-10T11:25:37;4.47;;;3.20;;
9140;SDS011;46330;50.822;7.126;2023-06-10T11:28:18;4.38;;;2.95;;
9140;SDS011;46330;50.822;7.126;2023-06-10T11:30:46;3.92;;;2.88;;
9140;SDS011;46330;50.822;7.126;2023-06-10T11:33:24;5.30;;;3.25;;
9140;SDS011;46330;50.822;7.126;2023-06-10T11:35:52;3.67;;;3.03;;
9140;SDS011;46330;50.822;7.126;2023-06-10T11:38:21;6.95;;;3.70;;
9140;SDS011;46330;50.822;7.126;2023-06-10T11:40:49;7.13;;;3.17;;
9140;SDS011;46330;50.822;7.126;2023-06-10T11:43:19;5.75;;;3.17;;
9140;SDS011;46330;50.822;7.126;2023-06-10T11:45:47;4.10;;;3.30;;
9140;SDS011;46330;50.822;7.126;2023-06-10T11:48:21;6.20;;;3.40;;
9140;SDS011;46330;50.822;7.126;2023-06-10T11:50:49;5.63;;;3.33;;
9140;SDS011;46330;50.822;7.126;2023-06-10T11:53:20;6.05;;;3.28;;
9140;SDS011;46330;50.822;7.126;2023-06-10T11:55:48;5.68;;;3.25;;
9140;SDS011;46330;50.822;7.126;2023-06-10T11:58:19;6.05;;;3.33;;
9140;SDS011;46330;50.822;7.126;2023-06-10T12:00:48;5.57;;;3.00;;
9140;SDS011;46330;50.822;7.126;2023-06-10T12:03:17;6.32;;;3.20;;
9140;SDS011;46330;50.822;7.126;2023-06-10T12:05:55;7.20;;;3.20;;
9140;SDS011;46330;50.822;7.126;2023-06-10T12:08:24;3.97;;;3.00;;
9140;SDS011;46330;50.822;7.126;2023-06-10T12:10:53;4.68;;;3.15;;
9140;SDS011;46330;50.822;7.126;2023-06-10T12:13:25;3.85;;;2.80;;
9140;SDS011;46330;50.822;7.126;2023-06-10T12:15:54;6.88;;;2.80;;
9140;SDS011;46330;50.822;7.126;2023-06-10T12:18:33;7.78;;;2.70;;
9140;SDS011;46330;50.822;7.126;2023-06-10T12:21:01;6.75;;;3.20;;
9140;SDS011;46330;50.822;7.126;2023-06-10T12:23:30;5.60;;;2.90;;
9140;SDS011;46330;50.822;7.126;2023-06-10T12:25:58;6.00;;;2.90;;
9140;SDS011;46330;50.822;7.126;2023-06-10T12:28:29;5.15;;;2.80;;
9140;SDS011;46330;50.822;7.126;2023-06-10T12:31:06;3.80;;;2.92;;
9140;SDS011;46330;50.822;7.126;2023-06-10T12:33:35;5.97;;;3.05;;
9140;SDS011;46330;50.822;7.126;2023-06-10T12:36:03;5.43;;;3.13;;
9140;SDS011;46330;50.822;7.126;2023-06-10T12:38:31;5.70;;;2.88;;
9140;SDS011;46330;50.822;7.126;2023-06-10T12:41:01;6.93;;;2.80;;
9140;SDS011;46330;50.822;7.126;2023-06-10T12:43:31;8.25;;;3.00;;
9140;SDS011;46330;50.822;7.126;2023-06-10T12:46:08;4.85;;;2.88;;
9140;SDS011;46330;50.822;7.126;2023-06-10T12:48:36;5.35;;;2.65;;
9140;SDS011;46330;50.822;7.126;2023-06-10T12:51:17;3.15;;;2.80;;
9140;SDS011;46330;50.822;7.126;2023-06-10T12:53:45;3.72;;;2.90;;
9140;SDS011;46330;50.822;7.126;2023-06-10T12:56:13;5.50;;;2.85;;
9140;SDS011;46330;50.822;7.126;2023-06-10T12:58:43;8.05;;;2.97;;
9140;SDS011;46330;50.822;7.126;2023-06-10T13:01:12;4.10;;;2.40;;
9140;SDS011;46330;50.822;7.126;2023-06-10T13:03:40;7.38;;;3.00;;
9140;SDS011;46330;50.822;7.126;2023-06-10T13:06:08;3.25;;;2.60;;
9140;SDS011;46330;50.822;7.126;2023-06-10T13:08:36;4.72;;;2.78;;
9140;SDS011;46330;50.822;7.126;2023-06-10T13:11:04;7.20;;;2.72;;
9140;SDS011;46330;50.822;7.126;2023-06-10T13:13:31;8.30;;;2.80;;
9140;SDS011;46330;50.822;7.126;2023-06-10T13:16:01;5.28;;;2.97;;
9140;SDS011;46330;50.822;7.126;2023-06-10T13:18:29;4.88;;;3.08;;
9140;SDS011;46330;50.822;7.126;2023-06-10T13:20:57;7.10;;;3.05;;
9140;SDS011;46330;50.822;7.126;2023-06-10T13:23:24;7.00;;;2.90;;
9140;SDS011;46330;50.822;7.126;2023-06-10T13:25:52;5.70;;;2.70;;
9140;SDS011;46330;50.822;7.126;2023-06-10T13:28:20;6.38;;;2.90;;
9140;SDS011;46330;50.822;7.126;2023-06-10T13:30:48;5.32;;;3.30;;
9140;SDS011;46330;50.822;7.126;2023-06-10T13:33:17;4.45;;;2.83;;
9140;SDS011;46330;50.822;7.126;2023-06-10T13:35:45;6.78;;;2.90;;
9140;SDS011;46330;50.822;7.126;2023-06-10T13:38:13;4.63;;;2.80;;
9140;SDS011;46330;50.822;7.126;2023-06-10T13:40:41;10.05;;;2.92;;
9140;SDS011;46330;50.822;7.126;2023-06-10T13:43:09;5.40;;;2.63;;
9140;SDS011;46330;50.822;7.126;2023-06-10T13:45:37;4.15;;;2.80;;
9140;SDS011;46330;50.822;7.126;2023-06-10T13:48:05;4.00;;;2.70;;
9140;SDS011;46330;50.822;7.126;2023-06-10T13:50:34;4.13;;;2.95;;
9140;SDS011;46330;50.822;7.126;2023-06-10T13:53:02;7.05;;;2.72;;
9140;SDS011;46330;50.822;7.126;2023-06-10T13:55:30;5.65;;;2.85;;
9140;SDS011;46330;50.822;7.126;2023-06-10T13:57:58;4.72;;;2.92;;
9140;SDS011;46330;50.822;7.126;2023-06-10T14:00:26;5.07;;;2.85;;
9140;SDS011;46330;50.822;7.126;2023-06-10T14:02:55;6.13;;;2.90;;
9140;SDS011;46330;50.822;7.126;2023-06-10T14:05:23;5.50;;;3.28;;
9140;SDS011;46330;50.822;7.126;2023-06-10T14:07:54;5.47;;;3.30;;
9140;SDS011;46330;50.822;7.126;2023-06-10T14:10:22;7.25;;;3.28;;
9140;SDS011;46330;50.822;7.126;2023-06-10T14:12:50;7.28;;;3.35;;
9140;SDS011;46330;50.822;7.126;2023-06-10T14:15:18;5.25;;;3.22;;
9140;SDS011;46330;50.822;7.126;2023-06-10T14:17:47;8.75;;;3.10;;
9140;SDS011;46330;50.822;7.126;2023-06-10T14:20:14;6.03;;;3.15;;
9140;SDS011;46330;50.822;7.126;2023-06-10T14:22:43;6.25;;;3.08;;
9140;SDS011;46330;50.822;7.126;2023-06-10T14:25:12;6.82;;;3.20;;
9140;SDS011;46330;50.822;7.126;2023-06-10T14:27:40;5.97;;;3.35;;
9140;SDS011;46330;50.822;7.126;2023-06-10T14:30:08;5.78;;;3.20;;
9140;SDS011;46330;50.822;7.126;2023-06-10T14:32:36;4.63;;;3.30;;
9140;SDS011;46330;50.822;7.126;2023-06-10T14:35:05;7.40;;;3.75;;
9140;SDS011;46330;50.822;7.126;2023-06-10T14:37:34;7.43;;;3.30;;
9140;SDS011;46330;50.822;7.126;2023-06-10T14:40:02;5.18;;;3.47;;
9140;SDS011;46330;50.822;7.126;2023-06-10T14:42:32;4.07;;;3.15;;
9140;SDS011;46330;50.822;7.126;2023-06-10T14:45:01;5.32;;;3.72;;
9140;SDS011;46330;50.822;7.126;2023-06-10T14:47:28;5.57;;;3.40;;
9140;SDS011;46330;50.822;7.126;2023-06-10T14:49:56;5.15;;;2.88;;
9140;SDS011;46330;50.822;7.126;2023-06-10T14:52:24;4.40;;;3.25;;
9140;SDS011;46330;50.822;7.126;2023-06-10T14:54:52;5.80;;;3.22;;
9140;SDS011;46330;50.822;7.126;2023-06-10T14:57:20;5.85;;;3.63;;
9140;SDS011;46330;50.822;7.126;2023-06-10T14:59:49;5.82;;;2.92;;
9140;SDS011;46330;50.822;7.126;2023-06-10T15:02:17;4.70;;;3.17;;
9140;SDS011;46330;50.822;7.126;2023-06-10T15:04:45;5.20;;;3.40;;
9140;SDS011;46330;50.822;7.126;2023-06-10T15:07:13;5.13;;;3.28;;
9140;SDS011;46330;50.822;7.126;2023-06-10T15:09:42;5.28;;;3.75;;
9140;SDS011;46330;50.822;7.126;2023-06-10T15:12:10;9.02;;;3.50;;